createdAt,value
2022-11-13T00:02:11.258Z,77.80
2022-11-13T00:04:37.823Z,77.41
2022-11-13T00:07:04.337Z,77.26
2022-11-13T00:09:30.755Z,77.08
2022-11-13T00:11:57.145Z,76.77
2022-11-13T00:14:23.578Z,76.96
2022-11-13T00:16:49.970Z,76.80
2022-11-13T00:19:16.496Z,76.96
2022-11-13T00:21:43.001Z,76.36
2022-11-13T00:24:09.417Z,77.11
2022-11-13T00:26:36.057Z,77.64
2022-11-13T00:29:03.439Z,77.44
2022-11-13T00:31:30.402Z,77.31
2022-11-13T00:34:19.472Z,77.78
2022-11-13T00:36:46.057Z,77.90
2022-11-13T00:39:12.580Z,77.98
2022-11-13T00:41:39.160Z,77.79
2022-11-13T00:44:05.825Z,77.69
2022-11-13T00:46:32.235Z,78.34
2022-11-13T00:48:58.661Z,78.88
2022-11-13T00:51:25.229Z,78.85
2022-11-13T00:53:51.731Z,79.50
2022-11-13T00:56:18.142Z,79.43
2022-11-13T00:58:44.642Z,79.49
2022-11-13T01:01:14.352Z,79.99
2022-11-13T01:03:41.660Z,79.95
2022-11-13T01:06:21.246Z,79.91
2022-11-13T01:08:48.175Z,79.63
2022-11-13T01:11:18.880Z,79.59
2022-11-13T01:13:47.658Z,79.95
2022-11-13T01:16:15.363Z,79.67
2022-11-13T01:18:42.790Z,80.62
2022-11-13T01:21:21.715Z,80.34
2022-11-13T01:23:48.114Z,80.28
2022-11-13T01:26:40.918Z,80.10
2022-11-13T01:29:07.375Z,81.05
2022-11-13T01:31:33.768Z,80.23
2022-11-13T01:34:00.257Z,81.18
2022-11-13T01:36:28.535Z,80.75
2022-11-13T01:38:55.913Z,80.43
2022-11-13T01:41:29.901Z,80.89
2022-11-13T01:43:56.934Z,80.69
2022-11-13T01:46:31.255Z,81.39
2022-11-13T01:49:09.849Z,80.92
2022-11-13T01:51:47.684Z,81.56
2022-11-13T01:54:19.122Z,81.20
2022-11-13T01:56:45.716Z,81.06
2022-11-13T01:59:17.444Z,81.58
2022-11-13T02:01:43.799Z,81.28
2022-11-13T02:04:10.497Z,81.56
2022-11-13T02:06:43.743Z,81.07
2022-11-13T02:09:11.153Z,80.42
2022-11-13T02:11:38.365Z,80.97
2022-11-13T02:14:06.131Z,80.99
2022-11-13T02:16:34.448Z,82.02
2022-11-13T02:19:03.791Z,82.14
2022-11-13T02:21:42.051Z,81.39
2022-11-13T02:24:32.713Z,80.59
2022-11-13T02:27:04.908Z,81.42
2022-11-13T02:29:31.392Z,82.07
2022-11-13T02:31:58.167Z,82.39
2022-11-13T02:34:24.569Z,81.44
2022-11-13T02:36:51.026Z,82.58
2022-11-13T02:39:17.422Z,82.07
2022-11-13T02:41:43.852Z,82.64
2022-11-13T02:44:10.359Z,81.95
2022-11-13T02:46:36.946Z,82.91
2022-11-13T02:49:03.951Z,82.91
2022-11-13T02:51:30.419Z,82.32
2022-11-13T02:53:56.865Z,82.60
2022-11-13T02:56:23.455Z,82.19
2022-11-13T02:58:49.898Z,82.48
2022-11-13T03:01:16.448Z,82.02
2022-11-13T03:03:58.660Z,82.57
2022-11-13T03:06:25.473Z,81.66
2022-11-13T03:08:51.912Z,82.49
2022-11-13T03:11:18.391Z,82.26
2022-11-13T03:13:44.793Z,81.44
2022-11-13T03:16:14.449Z,82.05
2022-11-13T03:18:41.553Z,81.48
2022-11-13T03:21:10.863Z,82.87
2022-11-13T03:23:38.151Z,82.89
2022-11-13T03:26:06.178Z,82.47
2022-11-13T03:28:33.400Z,82.92
2022-11-13T03:31:00.112Z,81.13
2022-11-13T03:33:26.941Z,82.45
2022-11-13T03:35:53.440Z,82.07
2022-11-13T03:38:19.895Z,83.22
2022-11-13T03:40:46.719Z,82.97
2022-11-13T03:43:13.144Z,82.08
2022-11-13T03:45:39.632Z,82.07
2022-11-13T03:48:06.384Z,83.40
2022-11-13T03:50:33.157Z,82.67
2022-11-13T03:52:59.575Z,82.10
2022-11-13T03:55:26.141Z,84.03
2022-11-13T03:57:52.527Z,82.57
2022-11-13T04:00:19.049Z,82.56
2022-11-13T04:02:45.440Z,82.57
2022-11-13T04:05:11.836Z,84.21
2022-11-13T04:07:38.311Z,83.92
2022-11-13T04:10:05.220Z,84.20
2022-11-13T04:12:31.692Z,84.57
2022-11-13T04:14:58.112Z,84.74
2022-11-13T04:17:24.580Z,84.00
2022-11-13T04:19:51.081Z,84.19
2022-11-13T04:22:17.511Z,83.29
2022-11-13T04:24:43.927Z,84.43
2022-11-13T04:27:10.327Z,83.55
2022-11-13T04:29:36.807Z,83.42
2022-11-13T04:32:03.242Z,83.87
2022-11-13T04:34:29.648Z,84.14
2022-11-13T04:36:56.164Z,82.87
2022-11-13T04:39:22.561Z,84.45
2022-11-13T04:42:07.224Z,83.63
2022-11-13T04:44:33.717Z,84.24
2022-11-13T04:47:00.136Z,83.02
2022-11-13T04:49:26.553Z,83.45
2022-11-13T04:51:52.938Z,82.61
2022-11-13T04:54:22.062Z,82.28
2022-11-13T04:56:52.269Z,82.07
2022-11-13T04:59:18.685Z,81.85
2022-11-13T05:01:45.142Z,82.78
2022-11-13T05:04:15.552Z,82.34
2022-11-13T05:06:42.393Z,82.63
2022-11-13T05:09:10.657Z,83.25
2022-11-13T05:11:37.078Z,83.54
2022-11-13T05:14:04.964Z,82.32
2022-11-13T05:16:31.622Z,82.76
2022-11-13T05:18:59.277Z,82.35
2022-11-13T05:21:25.826Z,83.54
2022-11-13T05:23:52.359Z,82.35
2022-11-13T05:26:19.246Z,84.03
2022-11-13T05:28:45.666Z,84.03
2022-11-13T05:31:15.292Z,82.81
2022-11-13T05:33:43.080Z,83.12
2022-11-13T05:36:12.173Z,83.17
2022-11-13T05:38:39.343Z,84.24
2022-11-13T05:41:17.795Z,83.06
2022-11-13T05:43:45.024Z,82.74
2022-11-13T05:46:22.091Z,84.66
2022-11-13T05:48:53.740Z,83.22
2022-11-13T05:51:23.821Z,82.70
2022-11-13T05:53:50.824Z,83.45
2022-11-13T05:56:23.946Z,82.95
2022-11-13T05:58:51.762Z,82.18
2022-11-13T06:01:21.605Z,82.63
2022-11-13T06:03:49.041Z,82.62
2022-11-13T06:06:20.172Z,84.38
2022-11-13T06:08:48.275Z,83.40
2022-11-13T06:11:18.074Z,84.45
2022-11-13T06:13:44.965Z,83.54
2022-11-13T06:16:17.729Z,83.63
2022-11-13T06:18:45.477Z,84.43
2022-11-13T06:21:23.118Z,84.66
2022-11-13T06:23:49.652Z,82.49
2022-11-13T06:26:25.739Z,83.11
2022-11-13T06:28:52.420Z,84.22
2022-11-13T06:31:22.557Z,84.81
2022-11-13T06:33:49.512Z,84.52
2022-11-13T06:36:18.626Z,83.70
2022-11-13T06:38:45.273Z,84.58
2022-11-13T06:41:13.821Z,82.38
2022-11-13T06:43:40.536Z,83.58
2022-11-13T06:46:12.377Z,82.68
2022-11-13T06:48:39.246Z,83.31
2022-11-13T06:51:07.858Z,83.37
2022-11-13T06:53:34.634Z,82.63
2022-11-13T06:56:01.799Z,83.98
2022-11-13T06:58:28.495Z,82.25
2022-11-13T07:00:55.192Z,82.94
2022-11-13T07:03:23.783Z,82.40
2022-11-13T07:05:50.314Z,82.89
2022-11-13T07:08:17.433Z,82.12
2022-11-13T07:10:44.294Z,83.52
2022-11-13T07:13:10.693Z,84.02
2022-11-13T07:15:39.222Z,82.19
2022-11-13T07:18:07.128Z,83.98
2022-11-13T07:20:34.028Z,83.27
2022-11-13T07:23:02.424Z,83.14
2022-11-13T07:25:29.415Z,83.07
2022-11-13T07:27:55.958Z,84.28
2022-11-13T07:30:23.139Z,82.69
2022-11-13T07:32:50.360Z,82.32
2022-11-13T07:35:17.313Z,83.73
2022-11-13T07:37:44.308Z,83.23
2022-11-13T07:40:11.764Z,82.35
2022-11-13T07:42:38.844Z,82.94
2022-11-13T07:45:06.451Z,84.06
2022-11-13T07:47:33.011Z,83.92
2022-11-13T07:50:05.582Z,83.21
2022-11-13T07:52:36.146Z,83.55
2022-11-13T07:55:02.586Z,83.37
2022-11-13T07:57:29.348Z,83.57
2022-11-13T07:59:55.853Z,82.49
2022-11-13T08:02:26.452Z,82.11
2022-11-13T08:04:53.113Z,83.98
2022-11-13T08:07:19.580Z,84.03
2022-11-13T08:09:46.012Z,82.27
2022-11-13T08:12:12.446Z,82.32
2022-11-13T08:14:38.857Z,83.55
2022-11-13T08:17:05.263Z,82.52
2022-11-13T08:19:31.697Z,82.74
2022-11-13T08:21:58.304Z,83.72
2022-11-13T08:24:24.769Z,83.78
2022-11-13T08:26:51.176Z,83.40
2022-11-13T08:29:17.594Z,83.51
2022-11-13T08:31:44.309Z,84.18
2022-11-13T08:34:10.811Z,83.61
2022-11-13T08:36:37.230Z,83.07
2022-11-13T08:39:03.753Z,84.03
2022-11-13T08:41:30.162Z,82.97
2022-11-13T08:43:56.676Z,83.85
2022-11-13T08:46:23.142Z,84.29
2022-11-13T08:48:49.533Z,84.22
2022-11-13T08:51:16.003Z,82.80
2022-11-13T08:53:42.394Z,84.92
2022-11-13T08:56:08.876Z,84.03
2022-11-13T08:58:35.329Z,85.11
2022-11-13T09:01:03.462Z,83.87
2022-11-13T09:03:30.236Z,84.00
2022-11-13T09:05:56.721Z,85.39
2022-11-13T09:08:23.190Z,84.22
2022-11-13T09:10:49.633Z,84.09
2022-11-13T09:13:16.036Z,84.29
2022-11-13T09:15:42.557Z,85.03
2022-11-13T09:18:10.243Z,84.52
2022-11-13T09:20:36.866Z,84.20
2022-11-13T09:23:06.181Z,84.24
2022-11-13T09:25:37.543Z,84.21
2022-11-13T09:28:04.695Z,83.52
2022-11-13T09:30:31.481Z,84.17
2022-11-13T09:33:00.640Z,83.37
2022-11-13T09:35:34.224Z,84.54
2022-11-13T09:38:11.019Z,84.33
2022-11-13T09:40:44.103Z,84.49
2022-11-13T09:43:40.076Z,83.13
2022-11-13T09:46:11.244Z,84.55
2022-11-13T09:48:46.823Z,85.48
2022-11-13T09:51:17.955Z,84.04
2022-11-13T09:53:44.942Z,85.53
2022-11-13T09:56:29.815Z,85.26
2022-11-13T09:59:11.873Z,85.39
2022-11-13T10:01:54.993Z,85.31
2022-11-13T10:04:33.632Z,85.23
2022-11-13T10:07:15.885Z,84.95
2022-11-13T10:10:01.938Z,84.99
2022-11-13T10:12:31.375Z,85.48
2022-11-13T10:15:03.353Z,84.68
2022-11-13T10:17:48.606Z,85.90
2022-11-13T10:20:22.895Z,84.70
2022-11-13T10:22:56.961Z,85.77
2022-11-13T10:25:28.345Z,86.19
2022-11-13T10:28:21.550Z,86.65
2022-11-13T10:30:45.958Z,85.28
2022-11-13T10:33:18.135Z,85.49
2022-11-13T10:36:18.494Z,85.44
2022-11-13T10:39:00.136Z,86.74
2022-11-13T10:41:26.525Z,85.30
2022-11-13T10:44:48.955Z,85.67
2022-11-13T10:47:42.523Z,87.22
2022-11-13T10:50:29.443Z,87.51
2022-11-13T10:52:57.726Z,87.03
2022-11-13T10:55:40.659Z,87.39
2022-11-13T10:58:16.982Z,86.23
2022-11-13T11:00:47.356Z,86.18
2022-11-13T11:03:22.260Z,85.97
2022-11-13T11:05:56.883Z,85.86
2022-11-13T11:08:32.030Z,85.30
2022-11-13T11:11:25.711Z,85.87
2022-11-13T11:13:52.490Z,86.39
2022-11-13T11:16:24.667Z,86.27
2022-11-13T11:19:00.110Z,85.03
2022-11-13T11:21:32.344Z,86.47
2022-11-13T11:24:04.554Z,86.06
2022-11-13T11:26:39.594Z,85.14
2022-11-13T11:29:34.876Z,86.21
2022-11-13T11:32:11.123Z,85.94
2022-11-13T11:34:45.964Z,86.10
2022-11-13T11:37:12.433Z,85.32
2022-11-13T11:40:03.957Z,84.14
2022-11-13T11:42:59.732Z,84.83
2022-11-13T11:45:38.609Z,84.85
2022-11-13T11:48:16.543Z,84.51
2022-11-13T11:50:46.331Z,84.84
2022-11-13T11:53:19.530Z,84.69
2022-11-13T11:56:10.348Z,84.91
2022-11-13T11:59:12.470Z,84.33
2022-11-13T12:01:58.291Z,83.87
2022-11-13T12:04:35.041Z,84.25
2022-11-13T12:07:30.350Z,84.31
2022-11-13T12:10:09.170Z,84.21
2022-11-13T12:13:17.023Z,84.36
2022-11-13T12:15:56.094Z,84.02
2022-11-13T12:18:25.593Z,84.22
2022-11-13T12:21:07.690Z,84.50
2022-11-13T12:23:42.829Z,84.71
2022-11-13T12:26:35.326Z,83.74
2022-11-13T12:29:16.649Z,85.04
2022-11-13T12:32:35.376Z,83.83
2022-11-13T12:35:10.145Z,83.73
2022-11-13T12:38:05.669Z,84.68
2022-11-13T12:40:41.195Z,83.23
2022-11-13T12:43:48.295Z,83.51
2022-11-13T12:46:15.804Z,84.70
2022-11-13T12:48:45.134Z,83.34
2022-11-13T12:51:15.153Z,83.42
2022-11-13T12:53:44.988Z,83.52
2022-11-13T12:56:23.976Z,82.46
2022-11-13T12:59:23.851Z,82.85
2022-11-13T13:02:07.015Z,82.69
2022-11-13T13:04:58.201Z,82.00
2022-11-13T13:07:39.973Z,82.76
2022-11-13T13:10:31.071Z,81.18
2022-11-13T13:13:41.926Z,82.32
2022-11-13T13:16:09.459Z,81.06
2022-11-13T13:18:40.446Z,82.10
2022-11-13T13:21:12.642Z,81.70
2022-11-13T13:23:42.117Z,80.81
2022-11-13T13:26:19.023Z,80.67
2022-11-13T13:28:51.008Z,81.08
2022-11-13T13:31:30.629Z,81.03
2022-11-13T13:34:37.785Z,81.40
2022-11-13T13:37:19.639Z,80.78
2022-11-13T13:39:49.114Z,80.48
2022-11-13T13:42:53.356Z,80.84
2022-11-13T13:45:57.077Z,79.99
2022-11-13T13:48:27.431Z,80.62
2022-11-13T13:50:55.318Z,80.49
2022-11-13T13:53:30.021Z,80.94
2022-11-13T13:55:58.284Z,79.01
2022-11-13T13:58:36.287Z,79.85
2022-11-13T14:01:18.405Z,79.32
2022-11-13T14:03:45.754Z,78.86
2022-11-13T14:06:20.566Z,80.09
2022-11-13T14:08:48.378Z,79.89
2022-11-13T14:11:27.271Z,79.87
2022-11-13T14:13:53.779Z,78.65
2022-11-13T14:16:20.322Z,78.17
2022-11-13T14:18:47.059Z,79.80
2022-11-13T14:21:24.872Z,78.72
2022-11-13T14:23:53.366Z,78.31
2022-11-13T14:26:20.746Z,78.90
2022-11-13T14:28:59.901Z,78.79
2022-11-13T14:31:33.226Z,79.40
2022-11-13T14:34:08.784Z,79.44
2022-11-13T14:36:37.112Z,79.26
2022-11-13T14:39:04.297Z,78.17
2022-11-13T14:41:36.235Z,77.23
2022-11-13T14:44:02.950Z,78.40
2022-11-13T14:46:29.406Z,77.91
2022-11-13T14:48:57.145Z,76.79
2022-11-13T14:51:32.583Z,77.29
2022-11-13T14:54:06.106Z,77.94
2022-11-13T14:56:41.118Z,77.65
2022-11-13T14:59:11.660Z,78.05
2022-11-13T15:01:41.444Z,77.11
2022-11-13T15:04:08.008Z,78.14
2022-11-13T15:06:40.306Z,76.59
2022-11-13T15:09:12.952Z,77.56
2022-11-13T15:11:40.380Z,76.61
2022-11-13T15:14:15.506Z,76.57
2022-11-13T15:16:44.640Z,78.09
2022-11-13T15:19:16.906Z,78.25
2022-11-13T15:21:51.025Z,78.06
2022-11-13T15:24:30.818Z,78.11
2022-11-13T15:26:57.382Z,77.91
2022-11-13T15:29:24.032Z,77.73
2022-11-13T15:31:50.562Z,78.19
2022-11-13T15:34:17.447Z,77.01
2022-11-13T15:36:45.959Z,77.51
2022-11-13T15:39:23.122Z,77.92
2022-11-13T15:41:50.477Z,77.14
2022-11-13T15:44:17.316Z,77.75
2022-11-13T15:46:43.791Z,78.01
2022-11-13T15:49:10.245Z,76.39
2022-11-13T15:51:46.275Z,76.74
2022-11-13T15:54:24.070Z,77.52
2022-11-13T15:56:50.737Z,77.40
2022-11-13T15:59:17.472Z,76.53
2022-11-13T16:01:44.077Z,78.05
2022-11-13T16:04:12.995Z,77.91
2022-11-13T16:06:41.147Z,77.65
2022-11-13T16:09:13.000Z,77.54
2022-11-13T16:11:39.846Z,76.46
2022-11-13T16:14:06.299Z,76.38
2022-11-13T16:16:36.759Z,78.11
2022-11-13T16:19:04.171Z,77.00
2022-11-13T16:21:30.913Z,77.11
2022-11-13T16:23:57.720Z,77.92
2022-11-13T16:26:25.898Z,77.67
2022-11-13T16:29:13.910Z,76.83
2022-11-13T16:31:41.523Z,76.59
2022-11-13T16:34:08.071Z,78.69
2022-11-13T16:36:34.740Z,76.97
2022-11-13T16:39:01.236Z,78.36
2022-11-13T16:41:27.763Z,79.06
2022-11-13T16:43:54.217Z,78.42
2022-11-13T16:46:31.840Z,77.75
2022-11-13T16:48:58.637Z,77.81
2022-11-13T16:51:25.036Z,78.75
2022-11-13T16:53:51.649Z,78.19
2022-11-13T16:56:28.015Z,77.40
2022-11-13T16:58:58.648Z,77.89
2022-11-13T17:01:26.211Z,77.93
2022-11-13T17:03:53.369Z,78.66
2022-11-13T17:06:22.065Z,78.73
2022-11-13T17:08:50.885Z,77.82
2022-11-13T17:11:18.273Z,77.84
2022-11-13T17:13:50.372Z,78.13
2022-11-13T17:16:17.430Z,78.69
2022-11-13T17:18:44.398Z,79.22
2022-11-13T17:21:11.350Z,77.19
2022-11-13T17:23:38.106Z,79.15
2022-11-13T17:26:05.201Z,77.93
2022-11-13T17:28:31.680Z,78.68
2022-11-13T17:31:03.666Z,77.36
2022-11-13T17:33:31.494Z,78.57
2022-11-13T17:35:59.035Z,78.32
2022-11-13T17:38:26.401Z,78.07
2022-11-13T17:40:54.049Z,77.08
2022-11-13T17:43:21.967Z,77.92
2022-11-13T17:45:51.703Z,77.90
2022-11-13T17:48:19.339Z,77.79
2022-11-13T17:50:55.611Z,78.65
2022-11-13T17:53:22.400Z,77.48
2022-11-13T17:56:01.288Z,77.56
2022-11-13T17:58:29.563Z,77.87
2022-11-13T18:01:05.504Z,76.60
2022-11-13T18:03:32.236Z,77.66
2022-11-13T18:05:58.901Z,78.66
2022-11-13T18:08:25.379Z,78.62
2022-11-13T18:10:51.857Z,77.77
2022-11-13T18:13:18.318Z,78.54
2022-11-13T18:15:44.908Z,77.82
2022-11-13T18:18:11.418Z,76.99
2022-11-13T18:20:40.171Z,78.18
2022-11-13T18:23:06.712Z,78.43
2022-11-13T18:25:39.405Z,79.41
2022-11-13T18:28:06.276Z,77.56
2022-11-13T18:30:32.783Z,79.51
2022-11-13T18:32:59.262Z,77.84
2022-11-13T18:35:25.793Z,79.63
2022-11-13T18:37:53.080Z,78.32
2022-11-13T18:40:19.654Z,79.95
2022-11-13T18:42:46.164Z,78.55
2022-11-13T18:45:16.162Z,79.71
2022-11-13T18:47:42.749Z,79.32
2022-11-13T18:50:09.442Z,78.97
2022-11-13T18:52:35.993Z,80.07
2022-11-13T18:55:02.525Z,80.25
2022-11-13T18:57:29.042Z,79.70
2022-11-13T18:59:55.480Z,79.90
2022-11-13T19:02:22.080Z,80.68
2022-11-13T19:04:48.536Z,79.53
2022-11-13T19:07:15.133Z,79.89
2022-11-13T19:09:45.842Z,80.27
2022-11-13T19:12:12.350Z,79.18
2022-11-13T19:14:38.879Z,78.85
2022-11-13T19:17:05.372Z,78.73
2022-11-13T19:19:31.789Z,78.64
2022-11-13T19:21:58.298Z,79.38
2022-11-13T19:24:24.786Z,78.44
2022-11-13T19:26:51.210Z,77.87
2022-11-13T19:29:18.163Z,78.54
2022-11-13T19:31:46.501Z,78.56
2022-11-13T19:34:13.437Z,77.55
2022-11-13T19:36:41.335Z,77.92
2022-11-13T19:39:09.765Z,79.43
2022-11-13T19:41:36.413Z,78.75
2022-11-13T19:44:02.872Z,78.02
2022-11-13T19:46:32.085Z,77.70
2022-11-13T19:48:58.650Z,79.89
2022-11-13T19:51:26.316Z,78.89
2022-11-13T19:53:54.640Z,79.37
2022-11-13T19:56:22.694Z,78.62
2022-11-13T19:58:50.719Z,79.42
2022-11-13T20:01:19.647Z,77.92
2022-11-13T20:03:46.202Z,78.71
2022-11-13T20:06:14.896Z,78.03
2022-11-13T20:08:41.990Z,78.71
2022-11-13T20:11:10.677Z,77.58
2022-11-13T20:13:38.560Z,78.93
2022-11-13T20:16:07.003Z,77.98
2022-11-13T20:18:33.511Z,78.93
2022-11-13T20:21:00.695Z,77.43
2022-11-13T20:23:27.662Z,78.83
2022-11-13T20:25:59.358Z,78.24
2022-11-13T20:28:27.242Z,79.04
2022-11-13T20:31:13.044Z,79.06
2022-11-13T20:33:39.535Z,77.94
2022-11-13T20:36:06.337Z,79.54
2022-11-13T20:38:32.956Z,79.46
2022-11-13T20:41:04.598Z,77.83
2022-11-13T20:43:31.438Z,78.54
2022-11-13T20:46:02.790Z,78.02
2022-11-13T20:48:29.494Z,79.39
2022-11-13T20:50:56.111Z,78.23
2022-11-13T20:53:22.928Z,78.30
2022-11-13T20:55:49.363Z,78.29
2022-11-13T20:58:15.866Z,77.76
2022-11-13T21:00:42.253Z,79.05
2022-11-13T21:03:08.867Z,77.67
2022-11-13T21:05:35.280Z,79.13
2022-11-13T21:08:01.687Z,78.34
2022-11-13T21:10:28.156Z,78.98
2022-11-13T21:12:55.100Z,77.46
2022-11-13T21:15:21.612Z,78.21
2022-11-13T21:17:48.082Z,77.98
2022-11-13T21:20:14.909Z,78.90
2022-11-13T21:22:41.421Z,78.21
2022-11-13T21:25:08.156Z,79.02
2022-11-13T21:27:34.590Z,78.12
2022-11-13T21:30:01.003Z,79.21
2022-11-13T21:32:27.477Z,79.25
2022-11-13T21:34:58.942Z,77.66
2022-11-13T21:37:26.526Z,77.83
2022-11-13T21:39:53.004Z,78.56
2022-11-13T21:42:19.410Z,77.43
2022-11-13T21:44:45.923Z,79.08
2022-11-13T21:47:12.396Z,78.52
2022-11-13T21:49:38.835Z,77.91
2022-11-13T21:52:05.258Z,78.95
2022-11-13T21:54:31.734Z,79.11
2022-11-13T21:56:58.123Z,77.35
2022-11-13T21:59:24.537Z,79.00
2022-11-13T22:01:51.934Z,77.66
2022-11-13T22:04:18.411Z,78.66
2022-11-13T22:06:49.061Z,77.65
2022-11-13T22:09:24.153Z,78.76
2022-11-13T22:11:50.787Z,78.24
2022-11-13T22:14:17.418Z,78.58
2022-11-13T22:16:46.111Z,77.50
2022-11-13T22:19:15.248Z,78.73
2022-11-13T22:21:42.814Z,78.65
2022-11-13T22:24:09.974Z,78.63
2022-11-13T22:26:38.781Z,78.31
2022-11-13T22:29:05.383Z,77.61
2022-11-13T22:31:33.093Z,77.37
2022-11-13T22:33:59.920Z,78.14
2022-11-13T22:36:34.195Z,78.32
2022-11-13T22:39:01.055Z,77.00
2022-11-13T22:41:31.028Z,76.88
2022-11-13T22:44:00.471Z,77.32
2022-11-13T22:46:29.285Z,78.10
2022-11-13T22:48:57.195Z,76.85
2022-11-13T22:51:29.945Z,77.64
2022-11-13T22:54:01.096Z,77.25
2022-11-13T22:56:30.026Z,78.50
2022-11-13T22:58:58.220Z,77.96
2022-11-13T23:01:33.228Z,77.54
2022-11-13T23:04:03.545Z,76.59
2022-11-13T23:06:32.220Z,77.29
2022-11-13T23:08:59.268Z,77.29
2022-11-13T23:11:29.428Z,78.50
2022-11-13T23:13:57.837Z,78.83
2022-11-13T23:16:26.164Z,77.66
2022-11-13T23:18:54.695Z,77.94
2022-11-13T23:21:21.804Z,78.98
2022-11-13T23:23:48.522Z,77.57
2022-11-13T23:26:16.204Z,78.49
2022-11-13T23:28:42.810Z,77.69
2022-11-13T23:31:09.662Z,79.23
2022-11-13T23:33:38.000Z,79.07
2022-11-13T23:36:06.679Z,79.34
2022-11-13T23:38:33.317Z,79.37
2022-11-13T23:41:00.927Z,79.65
2022-11-13T23:43:47.682Z,79.27
2022-11-13T23:46:14.930Z,77.43
2022-11-13T23:48:41.329Z,77.67
2022-11-13T23:51:07.787Z,78.42
2022-11-13T23:53:34.263Z,77.36
2022-11-13T23:56:01.053Z,77.30
2022-11-13T23:58:27.802Z,78.73
